sensor_id;sensor_type;location;lat;lon;timestamp;P1;durP1;ratioP1;P2;durP2;ratioP2
9860;SDS011;4969;52.304;4.968;2024-01-30T00:01:50;7.47;;;6.72;;
9860;SDS011;4969;52.304;4.968;2024-01-30T00:04:17;9.70;;;8.02;;
9860;SDS011;4969;52.304;4.968;2024-01-30T00:06:45;9.32;;;8.05;;
9860;SDS011;4969;52.304;4.968;2024-01-30T00:09:12;8.85;;;7.95;;
9860;SDS011;4969;52.304;4.968;2024-01-30T00:11:38;7.65;;;7.05;;
9860;SDS011;4969;52.304;4.968;2024-01-30T00:14:05;8.82;;;8.02;;
9860;SDS011;4969;52.304;4.968;2024-01-30T00:16:32;8.85;;;7.65;;
9860;SDS011;4969;52.304;4.968;2024-01-30T00:18:59;8.38;;;7.57;;
9860;SDS011;4969;52.304;4.968;2024-01-30T00:21:27;8.00;;;7.00;;
9860;SDS011;4969;52.304;4.968;2024-01-30T00:23:55;6.75;;;6.25;;
9860;SDS011;4969;52.304;4.968;2024-01-30T00:26:21;7.82;;;7.13;;
9860;SDS011;4969;52.304;4.968;2024-01-30T00:28:48;7.22;;;6.57;;
9860;SDS011;4969;52.304;4.968;2024-01-30T00:31:14;7.38;;;6.70;;
9860;SDS011;4969;52.304;4.968;2024-01-30T00:33:41;7.85;;;7.18;;
9860;SDS011;4969;52.304;4.968;2024-01-30T00:36:07;7.90;;;6.90;;
9860;SDS011;4969;52.304;4.968;2024-01-30T00:38:35;7.30;;;6.60;;
9860;SDS011;4969;52.304;4.968;2024-01-30T00:41:04;7.78;;;6.97;;
9860;SDS011;4969;52.304;4.968;2024-01-30T00:43:31;8.50;;;7.32;;
9860;SDS011;4969;52.304;4.968;2024-01-30T00:45:57;8.70;;;7.82;;
9860;SDS011;4969;52.304;4.968;2024-01-30T00:48:24;8.60;;;7.60;;
9860;SDS011;4969;52.304;4.968;2024-01-30T00:50:50;8.35;;;7.55;;
9860;SDS011;4969;52.304;4.968;2024-01-30T00:53:17;8.90;;;8.00;;
9860;SDS011;4969;52.304;4.968;2024-01-30T00:55:44;8.40;;;7.65;;
9860;SDS011;4969;52.304;4.968;2024-01-30T00:58:11;7.80;;;7.05;;
9860;SDS011;4969;52.304;4.968;2024-01-30T01:00:38;7.55;;;6.85;;
9860;SDS011;4969;52.304;4.968;2024-01-30T01:03:05;7.50;;;6.90;;
9860;SDS011;4969;52.304;4.968;2024-01-30T01:05:31;8.40;;;6.65;;
9860;SDS011;4969;52.304;4.968;2024-01-30T01:07:58;7.50;;;6.88;;
9860;SDS011;4969;52.304;4.968;2024-01-30T01:10:24;7.20;;;6.50;;
9860;SDS011;4969;52.304;4.968;2024-01-30T01:12:52;7.22;;;5.95;;
9860;SDS011;4969;52.304;4.968;2024-01-30T01:15:20;8.32;;;7.53;;
9860;SDS011;4969;52.304;4.968;2024-01-30T01:17:46;7.78;;;6.95;;
9860;SDS011;4969;52.304;4.968;2024-01-30T01:20:14;6.90;;;6.40;;
9860;SDS011;4969;52.304;4.968;2024-01-30T01:22:40;7.63;;;6.90;;
9860;SDS011;4969;52.304;4.968;2024-01-30T01:25:08;7.45;;;6.85;;
9860;SDS011;4969;52.304;4.968;2024-01-30T01:27:35;7.47;;;6.28;;
9860;SDS011;4969;52.304;4.968;2024-01-30T01:30:06;8.30;;;7.50;;
9860;SDS011;4969;52.304;4.968;2024-01-30T01:32:36;8.93;;;7.53;;
9860;SDS011;4969;52.304;4.968;2024-01-30T01:35:03;8.02;;;7.22;;
9860;SDS011;4969;52.304;4.968;2024-01-30T01:37:31;7.55;;;6.65;;
9860;SDS011;4969;52.304;4.968;2024-01-30T01:39:58;8.25;;;7.45;;
9860;SDS011;4969;52.304;4.968;2024-01-30T01:42:24;8.18;;;7.38;;
9860;SDS011;4969;52.304;4.968;2024-01-30T01:44:51;8.02;;;7.22;;
9860;SDS011;4969;52.304;4.968;2024-01-30T01:47:17;8.05;;;7.22;;
9860;SDS011;4969;52.304;4.968;2024-01-30T01:49:45;7.93;;;7.18;;
9860;SDS011;4969;52.304;4.968;2024-01-30T01:52:12;6.95;;;6.30;;
9860;SDS011;4969;52.304;4.968;2024-01-30T01:54:38;7.38;;;6.78;;
9860;SDS011;4969;52.304;4.968;2024-01-30T01:57:05;7.75;;;7.05;;
9860;SDS011;4969;52.304;4.968;2024-01-30T01:59:31;7.65;;;6.95;;
9860;SDS011;4969;52.304;4.968;2024-01-30T02:01:58;7.38;;;6.68;;
9860;SDS011;4969;52.304;4.968;2024-01-30T02:04:26;6.88;;;6.28;;
9860;SDS011;4969;52.304;4.968;2024-01-30T02:06:54;7.30;;;6.60;;
9860;SDS011;4969;52.304;4.968;2024-01-30T02:09:20;6.78;;;6.10;;
9860;SDS011;4969;52.304;4.968;2024-01-30T02:11:47;8.25;;;7.45;;
9860;SDS011;4969;52.304;4.968;2024-01-30T02:14:13;7.07;;;6.50;;
9860;SDS011;4969;52.304;4.968;2024-01-30T02:16:40;7.53;;;6.82;;
9860;SDS011;4969;52.304;4.968;2024-01-30T02:19:07;7.20;;;6.60;;
9860;SDS011;4969;52.304;4.968;2024-01-30T02:21:35;7.97;;;6.70;;
9860;SDS011;4969;52.304;4.968;2024-01-30T02:24:01;8.32;;;7.53;;
9860;SDS011;4969;52.304;4.968;2024-01-30T02:26:29;7.75;;;6.68;;
9860;SDS011;4969;52.304;4.968;2024-01-30T02:28:56;6.68;;;6.07;;
9860;SDS011;4969;52.304;4.968;2024-01-30T02:31:24;7.07;;;6.30;;
9860;SDS011;4969;52.304;4.968;2024-01-30T02:33:51;6.70;;;6.20;;
9860;SDS011;4969;52.304;4.968;2024-01-30T02:36:17;6.50;;;5.90;;
9860;SDS011;4969;52.304;4.968;2024-01-30T02:38:45;6.90;;;6.20;;
9860;SDS011;4969;52.304;4.968;2024-01-30T02:41:12;7.13;;;6.32;;
9860;SDS011;4969;52.304;4.968;2024-01-30T02:43:39;6.82;;;6.18;;
9860;SDS011;4969;52.304;4.968;2024-01-30T02:46:05;6.68;;;6.05;;
9860;SDS011;4969;52.304;4.968;2024-01-30T02:48:32;6.70;;;6.13;;
9860;SDS011;4969;52.304;4.968;2024-01-30T02:50:58;7.32;;;6.63;;
9860;SDS011;4969;52.304;4.968;2024-01-30T02:53:25;7.00;;;6.30;;
9860;SDS011;4969;52.304;4.968;2024-01-30T02:55:53;7.82;;;6.43;;
9860;SDS011;4969;52.304;4.968;2024-01-30T02:58:19;6.88;;;6.18;;
9860;SDS011;4969;52.304;4.968;2024-01-30T03:00:46;6.15;;;5.65;;
9860;SDS011;4969;52.304;4.968;2024-01-30T03:03:13;6.43;;;5.82;;
9860;SDS011;4969;52.304;4.968;2024-01-30T03:05:39;6.63;;;6.03;;
9860;SDS011;4969;52.304;4.968;2024-01-30T03:08:06;7.85;;;6.00;;
9860;SDS011;4969;52.304;4.968;2024-01-30T03:10:32;5.93;;;5.43;;
9860;SDS011;4969;52.304;4.968;2024-01-30T03:13:00;6.30;;;5.80;;
9860;SDS011;4969;52.304;4.968;2024-01-30T03:15:27;6.30;;;5.78;;
9860;SDS011;4969;52.304;4.968;2024-01-30T03:17:53;8.23;;;6.22;;
9860;SDS011;4969;52.304;4.968;2024-01-30T03:20:20;6.85;;;6.30;;
9860;SDS011;4969;52.304;4.968;2024-01-30T03:22:46;7.97;;;6.50;;
9860;SDS011;4969;52.304;4.968;2024-01-30T03:25:13;6.43;;;5.93;;
9860;SDS011;4969;52.304;4.968;2024-01-30T03:27:39;6.53;;;5.93;;
9860;SDS011;4969;52.304;4.968;2024-01-30T03:30:08;7.00;;;6.32;;
9860;SDS011;4969;52.304;4.968;2024-01-30T03:32:35;6.63;;;6.03;;
9860;SDS011;4969;52.304;4.968;2024-01-30T03:35:01;6.80;;;6.15;;
9860;SDS011;4969;52.304;4.968;2024-01-30T03:37:28;6.25;;;5.75;;
9860;SDS011;4969;52.304;4.968;2024-01-30T03:39:54;6.70;;;6.15;;
9860;SDS011;4969;52.304;4.968;2024-01-30T03:42:21;6.22;;;5.65;;
9860;SDS011;4969;52.304;4.968;2024-01-30T03:44:48;6.53;;;5.95;;
9860;SDS011;4969;52.304;4.968;2024-01-30T03:47:18;7.25;;;6.50;;
9860;SDS011;4969;52.304;4.968;2024-01-30T03:49:45;10.20;;;7.38;;
9860;SDS011;4969;52.304;4.968;2024-01-30T03:52:11;5.97;;;5.50;;
9860;SDS011;4969;52.304;4.968;2024-01-30T03:54:38;7.25;;;5.88;;
9860;SDS011;4969;52.304;4.968;2024-01-30T03:57:04;6.13;;;5.53;;
9860;SDS011;4969;52.304;4.968;2024-01-30T03:59:31;6.57;;;5.82;;
9860;SDS011;4969;52.304;4.968;2024-01-30T04:01:58;6.75;;;5.97;;
9860;SDS011;4969;52.304;4.968;2024-01-30T04:04:27;6.13;;;5.50;;
9860;SDS011;4969;52.304;4.968;2024-01-30T04:06:53;6.93;;;6.00;;
9860;SDS011;4969;52.304;4.968;2024-01-30T04:09:20;6.97;;;6.35;;
9860;SDS011;4969;52.304;4.968;2024-01-30T04:11:46;6.85;;;6.22;;
9860;SDS011;4969;52.304;4.968;2024-01-30T04:14:13;6.80;;;5.80;;
9860;SDS011;4969;52.304;4.968;2024-01-30T04:16:39;6.45;;;5.85;;
9860;SDS011;4969;52.304;4.968;2024-01-30T04:19:06;5.78;;;5.28;;
9860;SDS011;4969;52.304;4.968;2024-01-30T04:21:34;6.85;;;6.13;;
9860;SDS011;4969;52.304;4.968;2024-01-30T04:24:00;6.75;;;6.15;;
9860;SDS011;4969;52.304;4.968;2024-01-30T04:26:27;6.70;;;6.10;;
9860;SDS011;4969;52.304;4.968;2024-01-30T04:28:53;8.65;;;6.72;;
9860;SDS011;4969;52.304;4.968;2024-01-30T04:31:20;7.68;;;6.88;;
9860;SDS011;4969;52.304;4.968;2024-01-30T04:33:46;7.22;;;6.10;;
9860;SDS011;4969;52.304;4.968;2024-01-30T04:36:13;6.85;;;6.22;;
9860;SDS011;4969;52.304;4.968;2024-01-30T04:38:41;7.68;;;6.80;;
9860;SDS011;4969;52.304;4.968;2024-01-30T04:41:07;7.05;;;6.25;;
9860;SDS011;4969;52.304;4.968;2024-01-30T04:43:34;6.68;;;6.10;;
9860;SDS011;4969;52.304;4.968;2024-01-30T04:46:01;7.07;;;6.47;;
9860;SDS011;4969;52.304;4.968;2024-01-30T04:48:27;6.47;;;5.82;;
9860;SDS011;4969;52.304;4.968;2024-01-30T04:50:54;6.40;;;5.90;;
9860;SDS011;4969;52.304;4.968;2024-01-30T04:53:21;6.03;;;5.40;;
9860;SDS011;4969;52.304;4.968;2024-01-30T04:55:49;7.70;;;5.60;;
9860;SDS011;4969;52.304;4.968;2024-01-30T04:58:16;7.10;;;6.47;;
9860;SDS011;4969;52.304;4.968;2024-01-30T05:00:42;6.97;;;6.20;;
9860;SDS011;4969;52.304;4.968;2024-01-30T05:03:09;7.40;;;6.80;;
9860;SDS011;4969;52.304;4.968;2024-01-30T05:05:35;7.05;;;6.40;;
9860;SDS011;4969;52.304;4.968;2024-01-30T05:08:02;7.40;;;6.70;;
9860;SDS011;4969;52.304;4.968;2024-01-30T05:10:29;7.22;;;6.05;;
9860;SDS011;4969;52.304;4.968;2024-01-30T05:12:57;6.63;;;5.90;;
9860;SDS011;4969;52.304;4.968;2024-01-30T05:15:23;6.65;;;5.97;;
9860;SDS011;4969;52.304;4.968;2024-01-30T05:17:50;6.47;;;5.25;;
9860;SDS011;4969;52.304;4.968;2024-01-30T05:20:16;6.55;;;5.50;;
9860;SDS011;4969;52.304;4.968;2024-01-30T05:22:43;7.32;;;6.63;;
9860;SDS011;4969;52.304;4.968;2024-01-30T05:25:10;6.70;;;6.00;;
9860;SDS011;4969;52.304;4.968;2024-01-30T05:27:38;6.68;;;6.05;;
9860;SDS011;4969;52.304;4.968;2024-01-30T05:30:06;6.63;;;6.10;;
9860;SDS011;4969;52.304;4.968;2024-01-30T05:32:33;7.60;;;6.13;;
9860;SDS011;4969;52.304;4.968;2024-01-30T05:35:00;7.20;;;5.75;;
9860;SDS011;4969;52.304;4.968;2024-01-30T05:37:26;7.05;;;6.35;;
9860;SDS011;4969;52.304;4.968;2024-01-30T05:39:53;5.88;;;5.38;;
9860;SDS011;4969;52.304;4.968;2024-01-30T05:42:19;7.40;;;5.93;;
9860;SDS011;4969;52.304;4.968;2024-01-30T05:44:46;6.00;;;5.45;;
9860;SDS011;4969;52.304;4.968;2024-01-30T05:47:14;6.38;;;5.88;;
9860;SDS011;4969;52.304;4.968;2024-01-30T05:49:41;7.32;;;6.63;;
9860;SDS011;4969;52.304;4.968;2024-01-30T05:52:08;6.40;;;5.65;;
9860;SDS011;4969;52.304;4.968;2024-01-30T05:54:34;5.75;;;5.32;;
9860;SDS011;4969;52.304;4.968;2024-01-30T05:57:01;8.98;;;6.10;;
9860;SDS011;4969;52.304;4.968;2024-01-30T05:59:28;6.60;;;5.97;;
9860;SDS011;4969;52.304;4.968;2024-01-30T06:01:54;9.43;;;6.45;;
9860;SDS011;4969;52.304;4.968;2024-01-30T06:04:22;7.88;;;6.05;;
9860;SDS011;4969;52.304;4.968;2024-01-30T06:06:49;6.30;;;5.80;;
9860;SDS011;4969;52.304;4.968;2024-01-30T06:09:16;6.53;;;5.93;;
9860;SDS011;4969;52.304;4.968;2024-01-30T06:11:42;6.40;;;5.80;;
9860;SDS011;4969;52.304;4.968;2024-01-30T06:14:09;6.07;;;5.57;;
9860;SDS011;4969;52.304;4.968;2024-01-30T06:16:35;7.05;;;6.45;;
9860;SDS011;4969;52.304;4.968;2024-01-30T06:19:02;6.78;;;5.97;;
9860;SDS011;4969;52.304;4.968;2024-01-30T06:21:30;6.72;;;5.90;;
9860;SDS011;4969;52.304;4.968;2024-01-30T06:23:57;6.38;;;5.80;;
9860;SDS011;4969;52.304;4.968;2024-01-30T06:26:23;6.63;;;6.00;;
9860;SDS011;4969;52.304;4.968;2024-01-30T06:28:50;6.05;;;5.55;;
9860;SDS011;4969;52.304;4.968;2024-01-30T06:31:16;7.00;;;6.30;;
9860;SDS011;4969;52.304;4.968;2024-01-30T06:33:43;6.32;;;5.72;;
9860;SDS011;4969;52.304;4.968;2024-01-30T06:36:09;7.43;;;6.68;;
9860;SDS011;4969;52.304;4.968;2024-01-30T06:38:37;6.68;;;6.03;;
9860;SDS011;4969;52.304;4.968;2024-01-30T06:41:04;6.43;;;5.78;;
9860;SDS011;4969;52.304;4.968;2024-01-30T06:43:30;6.65;;;6.05;;
9860;SDS011;4969;52.304;4.968;2024-01-30T06:45:57;6.72;;;6.13;;
9860;SDS011;4969;52.304;4.968;2024-01-30T06:48:24;6.85;;;6.25;;
9860;SDS011;4969;52.304;4.968;2024-01-30T06:50:52;6.35;;;5.75;;
9860;SDS011;4969;52.304;4.968;2024-01-30T06:53:19;6.32;;;5.72;;
9860;SDS011;4969;52.304;4.968;2024-01-30T06:55:47;7.20;;;5.77;;
9860;SDS011;4969;52.304;4.968;2024-01-30T06:58:14;7.20;;;5.80;;
9860;SDS011;4969;52.304;4.968;2024-01-30T07:00:40;6.97;;;6.22;;
9860;SDS011;4969;52.304;4.968;2024-01-30T07:03:07;6.53;;;5.80;;
9860;SDS011;4969;52.304;4.968;2024-01-30T07:05:33;7.63;;;6.43;;
9860;SDS011;4969;52.304;4.968;2024-01-30T07:08:00;7.00;;;6.30;;
9860;SDS011;4969;52.304;4.968;2024-01-30T07:10:27;7.35;;;5.93;;
9860;SDS011;4969;52.304;4.968;2024-01-30T07:12:54;7.18;;;6.55;;
9860;SDS011;4969;52.304;4.968;2024-01-30T07:15:21;6.82;;;6.20;;
9860;SDS011;4969;52.304;4.968;2024-01-30T07:17:48;7.13;;;6.43;;
9860;SDS011;4969;52.304;4.968;2024-01-30T07:20:14;7.70;;;6.07;;
9860;SDS011;4969;52.304;4.968;2024-01-30T07:22:41;6.35;;;5.80;;
9860;SDS011;4969;52.304;4.968;2024-01-30T07:25:08;7.70;;;5.95;;
9860;SDS011;4969;52.304;4.968;2024-01-30T07:27:34;7.75;;;6.68;;
9860;SDS011;4969;52.304;4.968;2024-01-30T07:30:03;8.05;;;6.28;;
9860;SDS011;4969;52.304;4.968;2024-01-30T07:32:30;6.93;;;6.15;;
9860;SDS011;4969;52.304;4.968;2024-01-30T07:34:57;7.10;;;6.45;;
9860;SDS011;4969;52.304;4.968;2024-01-30T07:37:23;7.43;;;6.72;;
9860;SDS011;4969;52.304;4.968;2024-01-30T07:39:50;8.45;;;6.00;;
9860;SDS011;4969;52.304;4.968;2024-01-30T07:42:16;8.40;;;6.80;;
9860;SDS011;4969;52.304;4.968;2024-01-30T07:44:43;8.73;;;6.70;;
9860;SDS011;4969;52.304;4.968;2024-01-30T07:47:11;6.32;;;5.72;;
9860;SDS011;4969;52.304;4.968;2024-01-30T07:49:41;6.22;;;5.63;;
9860;SDS011;4969;52.304;4.968;2024-01-30T07:52:07;6.78;;;6.18;;
9860;SDS011;4969;52.304;4.968;2024-01-30T07:54:34;8.07;;;6.18;;
9860;SDS011;4969;52.304;4.968;2024-01-30T07:57:14;6.60;;;6.00;;
9860;SDS011;4969;52.304;4.968;2024-01-30T07:59:41;8.32;;;6.78;;
9860;SDS011;4969;52.304;4.968;2024-01-30T08:02:08;9.02;;;5.50;;
9860;SDS011;4969;52.304;4.968;2024-01-30T08:04:36;6.45;;;5.65;;
9860;SDS011;4969;52.304;4.968;2024-01-30T08:07:03;6.47;;;5.70;;
9860;SDS011;4969;52.304;4.968;2024-01-30T08:09:29;6.32;;;5.72;;
9860;SDS011;4969;52.304;4.968;2024-01-30T08:11:56;8.98;;;6.50;;
9860;SDS011;4969;52.304;4.968;2024-01-30T08:14:22;8.07;;;5.43;;
9860;SDS011;4969;52.304;4.968;2024-01-30T08:16:49;7.38;;;6.07;;
9860;SDS011;4969;52.304;4.968;2024-01-30T08:19:16;6.72;;;6.10;;
9860;SDS011;4969;52.304;4.968;2024-01-30T08:21:43;6.75;;;6.00;;
9860;SDS011;4969;52.304;4.968;2024-01-30T08:24:10;11.77;;;5.75;;
9860;SDS011;4969;52.304;4.968;2024-01-30T08:26:36;8.02;;;5.72;;
9860;SDS011;4969;52.304;4.968;2024-01-30T08:29:03;6.55;;;5.95;;
9860;SDS011;4969;52.304;4.968;2024-01-30T08:31:30;8.23;;;4.97;;
9860;SDS011;4969;52.304;4.968;2024-01-30T08:33:56;9.32;;;6.97;;
9860;SDS011;4969;52.304;4.968;2024-01-30T08:36:23;8.77;;;5.82;;
9860;SDS011;4969;52.304;4.968;2024-01-30T08:38:51;7.85;;;6.78;;
9860;SDS011;4969;52.304;4.968;2024-01-30T08:41:18;7.78;;;5.47;;
9860;SDS011;4969;52.304;4.968;2024-01-30T08:43:44;8.00;;;5.95;;
9860;SDS011;4969;52.304;4.968;2024-01-30T08:46:11;9.23;;;6.07;;
9860;SDS011;4969;52.304;4.968;2024-01-30T08:48:38;7.18;;;6.03;;
9860;SDS011;4969;52.304;4.968;2024-01-30T08:51:04;6.50;;;5.65;;
9860;SDS011;4969;52.304;4.968;2024-01-30T08:53:33;7.28;;;5.88;;
9860;SDS011;4969;52.304;4.968;2024-01-30T08:56:01;6.47;;;5.85;;
9860;SDS011;4969;52.304;4.968;2024-01-30T08:58:28;6.45;;;5.85;;
9860;SDS011;4969;52.304;4.968;2024-01-30T09:00:54;8.63;;;6.82;;
9860;SDS011;4969;52.304;4.968;2024-01-30T09:03:21;7.28;;;5.78;;
9860;SDS011;4969;52.304;4.968;2024-01-30T09:05:47;7.93;;;5.88;;
9860;SDS011;4969;52.304;4.968;2024-01-30T09:08:14;10.30;;;7.68;;
9860;SDS011;4969;52.304;4.968;2024-01-30T09:10:41;7.45;;;6.28;;
9860;SDS011;4969;52.304;4.968;2024-01-30T09:13:09;10.20;;;6.93;;
9860;SDS011;4969;52.304;4.968;2024-01-30T09:15:35;7.90;;;6.43;;
9860;SDS011;4969;52.304;4.968;2024-01-30T09:18:02;9.20;;;6.93;;
9860;SDS011;4969;52.304;4.968;2024-01-30T09:20:28;8.65;;;7.22;;
9860;SDS011;4969;52.304;4.968;2024-01-30T09:22:55;6.82;;;6.05;;
9860;SDS011;4969;52.304;4.968;2024-01-30T09:25:21;8.73;;;7.30;;
9860;SDS011;4969;52.304;4.968;2024-01-30T09:27:48;11.13;;;7.30;;
9860;SDS011;4969;52.304;4.968;2024-01-30T09:30:16;10.60;;;6.80;;
9860;SDS011;4969;52.304;4.968;2024-01-30T09:32:43;9.63;;;7.22;;
9860;SDS011;4969;52.304;4.968;2024-01-30T09:35:10;10.20;;;7.47;;
9860;SDS011;4969;52.304;4.968;2024-01-30T09:37:36;9.20;;;6.85;;
9860;SDS011;4969;52.304;4.968;2024-01-30T09:40:03;11.90;;;7.18;;
9860;SDS011;4969;52.304;4.968;2024-01-30T09:42:33;9.77;;;7.18;;
9860;SDS011;4969;52.304;4.968;2024-01-30T09:45:01;7.18;;;6.30;;
9860;SDS011;4969;52.304;4.968;2024-01-30T09:47:31;9.40;;;6.43;;
9860;SDS011;4969;52.304;4.968;2024-01-30T09:49:58;8.10;;;7.30;;
9860;SDS011;4969;52.304;4.968;2024-01-30T09:52:25;11.00;;;7.15;;
9860;SDS011;4969;52.304;4.968;2024-01-30T09:54:52;11.20;;;7.55;;
9860;SDS011;4969;52.304;4.968;2024-01-30T09:57:19;8.75;;;6.78;;
9860;SDS011;4969;52.304;4.968;2024-01-30T09:59:46;7.32;;;6.05;;
9860;SDS011;4969;52.304;4.968;2024-01-30T10:02:13;8.35;;;5.95;;
9860;SDS011;4969;52.304;4.968;2024-01-30T10:04:41;9.30;;;6.60;;
9860;SDS011;4969;52.304;4.968;2024-01-30T10:07:08;7.75;;;5.82;;
9860;SDS011;4969;52.304;4.968;2024-01-30T10:09:37;6.75;;;5.63;;
9860;SDS011;4969;52.304;4.968;2024-01-30T10:12:04;8.93;;;6.22;;
9860;SDS011;4969;52.304;4.968;2024-01-30T10:14:32;10.93;;;6.18;;
9860;SDS011;4969;52.304;4.968;2024-01-30T10:16:59;10.10;;;6.03;;
9860;SDS011;4969;52.304;4.968;2024-01-30T10:19:27;8.47;;;4.40;;
9860;SDS011;4969;52.304;4.968;2024-01-30T10:21:55;7.53;;;3.93;;
9860;SDS011;4969;52.304;4.968;2024-01-30T10:24:23;8.30;;;3.40;;
9860;SDS011;4969;52.304;4.968;2024-01-30T10:26:50;5.13;;;2.83;;
9860;SDS011;4969;52.304;4.968;2024-01-30T10:29:17;8.00;;;3.33;;
9860;SDS011;4969;52.304;4.968;2024-01-30T10:31:44;6.33;;;3.00;;
9860;SDS011;4969;52.304;4.968;2024-01-30T10:34:10;5.03;;;2.80;;
9860;SDS011;4969;52.304;4.968;2024-01-30T10:36:39;7.27;;;2.90;;
9860;SDS011;4969;52.304;4.968;2024-01-30T10:39:07;6.43;;;3.40;;
9860;SDS011;4969;52.304;4.968;2024-01-30T10:41:37;6.23;;;2.50;;
9860;SDS011;4969;52.304;4.968;2024-01-30T10:44:08;4.23;;;2.30;;
9860;SDS011;4969;52.304;4.968;2024-01-30T10:46:35;4.13;;;1.93;;
9860;SDS011;4969;52.304;4.968;2024-01-30T10:49:04;4.47;;;1.90;;
9860;SDS011;4969;52.304;4.968;2024-01-30T10:51:32;2.90;;;1.63;;
9860;SDS011;4969;52.304;4.968;2024-01-30T10:54:00;2.33;;;1.37;;
9860;SDS011;4969;52.304;4.968;2024-01-30T10:56:29;3.27;;;1.70;;
9860;SDS011;4969;52.304;4.968;2024-01-30T10:58:56;4.70;;;2.20;;
9860;SDS011;4969;52.304;4.968;2024-01-30T11:01:23;3.67;;;1.50;;
9860;SDS011;4969;52.304;4.968;2024-01-30T11:03:50;5.83;;;1.60;;
9860;SDS011;4969;52.304;4.968;2024-01-30T11:06:17;3.50;;;1.67;;
9860;SDS011;4969;52.304;4.968;2024-01-30T11:08:44;5.00;;;1.30;;
9860;SDS011;4969;52.304;4.968;2024-01-30T11:11:11;3.70;;;1.50;;
9860;SDS011;4969;52.304;4.968;2024-01-30T11:13:39;1.83;;;1.33;;
9860;SDS011;4969;52.304;4.968;2024-01-30T11:16:06;3.87;;;1.50;;
9860;SDS011;4969;52.304;4.968;2024-01-30T11:18:33;2.67;;;1.30;;
9860;SDS011;4969;52.304;4.968;2024-01-30T11:21:04;2.83;;;1.10;;
9860;SDS011;4969;52.304;4.968;2024-01-30T11:23:33;3.00;;;1.40;;
9860;SDS011;4969;52.304;4.968;2024-01-30T11:26:00;2.57;;;1.30;;
9860;SDS011;4969;52.304;4.968;2024-01-30T11:28:31;4.13;;;1.43;;
9860;SDS011;4969;52.304;4.968;2024-01-30T11:31:04;2.97;;;1.23;;
9860;SDS011;4969;52.304;4.968;2024-01-30T11:33:32;2.63;;;1.27;;
9860;SDS011;4969;52.304;4.968;2024-01-30T11:35:59;3.50;;;1.30;;
9860;SDS011;4969;52.304;4.968;2024-01-30T11:38:27;2.00;;;1.10;;
9860;SDS011;4969;52.304;4.968;2024-01-30T11:40:54;4.23;;;1.40;;
9860;SDS011;4969;52.304;4.968;2024-01-30T11:43:21;2.77;;;1.37;;
9860;SDS011;4969;52.304;4.968;2024-01-30T11:45:48;3.17;;;1.20;;
9860;SDS011;4969;52.304;4.968;2024-01-30T11:48:16;3.73;;;1.50;;
9860;SDS011;4969;52.304;4.968;2024-01-30T11:50:43;2.43;;;1.20;;
9860;SDS011;4969;52.304;4.968;2024-01-30T11:53:11;3.97;;;1.40;;
9860;SDS011;4969;52.304;4.968;2024-01-30T11:55:38;3.53;;;1.40;;
9860;SDS011;4969;52.304;4.968;2024-01-30T11:58:04;3.03;;;1.30;;
9860;SDS011;4969;52.304;4.968;2024-01-30T12:00:31;4.37;;;1.67;;
9860;SDS011;4969;52.304;4.968;2024-01-30T12:02:58;6.07;;;1.90;;
9860;SDS011;4969;52.304;4.968;2024-01-30T12:05:27;2.40;;;1.50;;
9860;SDS011;4969;52.304;4.968;2024-01-30T12:07:54;3.63;;;1.57;;
9860;SDS011;4969;52.304;4.968;2024-01-30T12:10:23;2.97;;;1.70;;
9860;SDS011;4969;52.304;4.968;2024-01-30T12:12:50;4.55;;;1.60;;
9860;SDS011;4969;52.304;4.968;2024-01-30T12:15:19;4.40;;;1.60;;
9860;SDS011;4969;52.304;4.968;2024-01-30T12:17:47;6.38;;;1.75;;
9860;SDS011;4969;52.304;4.968;2024-01-30T12:20:14;4.93;;;1.50;;
9860;SDS011;4969;52.304;4.968;2024-01-30T12:22:44;5.00;;;2.00;;
9860;SDS011;4969;52.304;4.968;2024-01-30T12:25:11;6.07;;;2.50;;
9860;SDS011;4969;52.304;4.968;2024-01-30T12:27:39;5.17;;;1.70;;
9860;SDS011;4969;52.304;4.968;2024-01-30T12:30:08;4.63;;;1.83;;
9860;SDS011;4969;52.304;4.968;2024-01-30T12:32:36;6.63;;;1.73;;
9860;SDS011;4969;52.304;4.968;2024-01-30T12:35:03;3.33;;;1.70;;
9860;SDS011;4969;52.304;4.968;2024-01-30T12:37:32;3.53;;;1.47;;
9860;SDS011;4969;52.304;4.968;2024-01-30T12:40:01;4.37;;;1.53;;
9860;SDS011;4969;52.304;4.968;2024-01-30T12:42:27;4.63;;;1.70;;
9860;SDS011;4969;52.304;4.968;2024-01-30T12:44:56;4.93;;;2.00;;
9860;SDS011;4969;52.304;4.968;2024-01-30T12:47:23;8.40;;;2.40;;
9860;SDS011;4969;52.304;4.968;2024-01-30T12:49:49;4.97;;;1.63;;
9860;SDS011;4969;52.304;4.968;2024-01-30T12:52:18;4.93;;;1.97;;
9860;SDS011;4969;52.304;4.968;2024-01-30T12:54:45;5.00;;;2.20;;
9860;SDS011;4969;52.304;4.968;2024-01-30T12:57:13;4.53;;;2.00;;
9860;SDS011;4969;52.304;4.968;2024-01-30T12:59:40;4.87;;;2.00;;
9860;SDS011;4969;52.304;4.968;2024-01-30T13:02:06;8.57;;;2.20;;
9860;SDS011;4969;52.304;4.968;2024-01-30T13:04:34;4.47;;;2.30;;
9860;SDS011;4969;52.304;4.968;2024-01-30T13:07:01;4.80;;;1.83;;
9860;SDS011;4969;52.304;4.968;2024-01-30T13:09:29;5.03;;;1.83;;
9860;SDS011;4969;52.304;4.968;2024-01-30T13:11:56;6.80;;;2.43;;
9860;SDS011;4969;52.304;4.968;2024-01-30T13:14:24;4.87;;;2.07;;
9860;SDS011;4969;52.304;4.968;2024-01-30T13:16:50;5.40;;;2.20;;
9860;SDS011;4969;52.304;4.968;2024-01-30T13:19:17;3.47;;;1.70;;
9860;SDS011;4969;52.304;4.968;2024-01-30T13:21:44;3.47;;;1.90;;
9860;SDS011;4969;52.304;4.968;2024-01-30T13:24:11;4.50;;;1.80;;
9860;SDS011;4969;52.304;4.968;2024-01-30T13:26:37;5.90;;;1.70;;
9860;SDS011;4969;52.304;4.968;2024-01-30T13:29:04;5.20;;;2.23;;
9860;SDS011;4969;52.304;4.968;2024-01-30T13:31:32;4.27;;;1.90;;
9860;SDS011;4969;52.304;4.968;2024-01-30T13:33:59;3.17;;;1.57;;
9860;SDS011;4969;52.304;4.968;2024-01-30T13:36:26;4.47;;;2.00;;
9860;SDS011;4969;52.304;4.968;2024-01-30T13:38:52;3.10;;;1.80;;
9860;SDS011;4969;52.304;4.968;2024-01-30T13:41:19;2.80;;;1.73;;
9860;SDS011;4969;52.304;4.968;2024-01-30T13:43:47;3.87;;;2.10;;
9860;SDS011;4969;52.304;4.968;2024-01-30T13:46:14;3.80;;;2.10;;
9860;SDS011;4969;52.304;4.968;2024-01-30T13:48:42;5.47;;;2.03;;
9860;SDS011;4969;52.304;4.968;2024-01-30T13:51:08;4.87;;;1.90;;
9860;SDS011;4969;52.304;4.968;2024-01-30T13:53:36;3.97;;;1.90;;
9860;SDS011;4969;52.304;4.968;2024-01-30T13:56:02;2.90;;;2.00;;
9860;SDS011;4969;52.304;4.968;2024-01-30T13:58:29;2.10;;;1.90;;
9860;SDS011;4969;52.304;4.968;2024-01-30T14:00:58;2.67;;;2.17;;
9860;SDS011;4969;52.304;4.968;2024-01-30T14:03:25;4.43;;;2.17;;
9860;SDS011;4969;52.304;4.968;2024-01-30T14:05:53;2.53;;;1.90;;
9860;SDS011;4969;52.304;4.968;2024-01-30T14:08:20;3.97;;;2.20;;
9860;SDS011;4969;52.304;4.968;2024-01-30T14:10:49;4.10;;;2.03;;
9860;SDS011;4969;52.304;4.968;2024-01-30T14:13:15;2.20;;;1.67;;
9860;SDS011;4969;52.304;4.968;2024-01-30T14:15:42;2.60;;;2.13;;
9860;SDS011;4969;52.304;4.968;2024-01-30T14:18:09;2.60;;;1.80;;
9860;SDS011;4969;52.304;4.968;2024-01-30T14:20:36;4.43;;;1.90;;
9860;SDS011;4969;52.304;4.968;2024-01-30T14:23:04;2.93;;;1.87;;
9860;SDS011;4969;52.304;4.968;2024-01-30T14:25:30;2.07;;;1.83;;
9860;SDS011;4969;52.304;4.968;2024-01-30T14:27:57;2.13;;;1.83;;
9860;SDS011;4969;52.304;4.968;2024-01-30T14:30:24;3.60;;;1.67;;
9860;SDS011;4969;52.304;4.968;2024-01-30T14:32:50;2.80;;;2.03;;
9860;SDS011;4969;52.304;4.968;2024-01-30T14:35:17;1.73;;;1.63;;
9860;SDS011;4969;52.304;4.968;2024-01-30T14:37:44;2.50;;;1.80;;
9860;SDS011;4969;52.304;4.968;2024-01-30T14:40:12;2.53;;;1.83;;
9860;SDS011;4969;52.304;4.968;2024-01-30T14:42:39;2.63;;;1.83;;
9860;SDS011;4969;52.304;4.968;2024-01-30T14:45:06;2.63;;;1.73;;
9860;SDS011;4969;52.304;4.968;2024-01-30T14:47:33;1.90;;;1.80;;
9860;SDS011;4969;52.304;4.968;2024-01-30T14:50:00;2.23;;;2.03;;
9860;SDS011;4969;52.304;4.968;2024-01-30T14:52:27;3.17;;;1.80;;
9860;SDS011;4969;52.304;4.968;2024-01-30T14:54:53;2.13;;;1.60;;
9860;SDS011;4969;52.304;4.968;2024-01-30T14:57:21;1.80;;;1.70;;
9860;SDS011;4969;52.304;4.968;2024-01-30T14:59:47;2.00;;;1.80;;
9860;SDS011;4969;52.304;4.968;2024-01-30T15:02:14;2.87;;;1.90;;
9860;SDS011;4969;52.304;4.968;2024-01-30T15:04:41;2.33;;;1.93;;
9860;SDS011;4969;52.304;4.968;2024-01-30T15:07:07;1.97;;;1.80;;
9860;SDS011;4969;52.304;4.968;2024-01-30T15:09:34;2.00;;;1.70;;
9860;SDS011;4969;52.304;4.968;2024-01-30T15:12:01;1.53;;;1.43;;
9860;SDS011;4969;52.304;4.968;2024-01-30T15:14:28;2.10;;;1.63;;